sensor_id;sensor_type;location;lat;lon;timestamp;pressure;altitude;pressure_sealevel;temperature;humidity
2339;BME280;1180;51.438;6.978;2023-04-15T00:00:32;99479.22;;;12.00;60.74
2339;BME280;1180;51.438;6.978;2023-04-15T00:02:58;99464.75;;;11.99;61.11
2339;BME280;1180;51.438;6.978;2023-04-15T00:05:23;99464.53;;;12.13;60.58
2339;BME280;1180;51.438;6.978;2023-04-15T00:07:49;99465.22;;;12.16;60.22
2339;BME280;1180;51.438;6.978;2023-04-15T00:10:14;99474.91;;;12.12;60.48
2339;BME280;1180;51.438;6.978;2023-04-15T00:12:39;99468.16;;;12.11;60.76
2339;BME280;1180;51.438;6.978;2023-04-15T00:15:07;99465.69;;;11.98;60.92
2339;BME280;1180;51.438;6.978;2023-04-15T00:17:34;99472.25;;;12.02;60.91
2339;BME280;1180;51.438;6.978;2023-04-15T00:20:00;99474.22;;;11.87;61.76
2339;BME280;1180;51.438;6.978;2023-04-15T00:22:26;99465.25;;;11.81;62.09
2339;BME280;1180;51.438;6.978;2023-04-15T00:24:54;99468.25;;;11.98;61.59
2339;BME280;1180;51.438;6.978;2023-04-15T00:27:19;99471.66;;;11.98;61.54
2339;BME280;1180;51.438;6.978;2023-04-15T00:29:45;99465.47;;;12.01;61.58
2339;BME280;1180;51.438;6.978;2023-04-15T00:32:11;99471.06;;;12.06;61.32
2339;BME280;1180;51.438;6.978;2023-04-15T00:34:36;99461.47;;;11.97;61.43
2339;BME280;1180;51.438;6.978;2023-04-15T00:37:02;99461.75;;;11.82;62.19
2339;BME280;1180;51.438;6.978;2023-04-15T00:39:27;99469.81;;;11.66;62.76
2339;BME280;1180;51.438;6.978;2023-04-15T00:41:52;99461.50;;;11.63;63.11
2339;BME280;1180;51.438;6.978;2023-04-15T00:44:19;99470.72;;;11.43;63.85
2339;BME280;1180;51.438;6.978;2023-04-15T00:46:50;99465.72;;;11.52;63.41
2339;BME280;1180;51.438;6.978;2023-04-15T00:49:15;99465.09;;;11.15;65.14
2339;BME280;1180;51.438;6.978;2023-04-15T00:51:42;99467.44;;;11.18;65.30
2339;BME280;1180;51.438;6.978;2023-04-15T00:54:09;99470.72;;;11.31;64.60
2339;BME280;1180;51.438;6.978;2023-04-15T00:56:35;99474.34;;;11.29;65.09
2339;BME280;1180;51.438;6.978;2023-04-15T00:59:02;99483.53;;;11.08;65.03
2339;BME280;1180;51.438;6.978;2023-04-15T01:01:28;99471.63;;;11.07;65.44
2339;BME280;1180;51.438;6.978;2023-04-15T01:03:56;99473.63;;;11.15;65.32
2339;BME280;1180;51.438;6.978;2023-04-15T01:06:24;99471.31;;;11.23;65.09
2339;BME280;1180;51.438;6.978;2023-04-15T01:08:52;99469.75;;;11.21;65.23
2339;BME280;1180;51.438;6.978;2023-04-15T01:11:18;99466.06;;;11.36;64.81
2339;BME280;1180;51.438;6.978;2023-04-15T01:13:43;99475.16;;;11.40;64.59
2339;BME280;1180;51.438;6.978;2023-04-15T01:16:10;99465.81;;;11.28;64.29
2339;BME280;1180;51.438;6.978;2023-04-15T01:18:36;99470.00;;;11.18;65.25
2339;BME280;1180;51.438;6.978;2023-04-15T01:21:03;99469.56;;;11.35;64.95
2339;BME280;1180;51.438;6.978;2023-04-15T01:23:29;99464.00;;;11.06;65.31
2339;BME280;1180;51.438;6.978;2023-04-15T01:25:55;99466.34;;;11.09;66.26
2339;BME280;1180;51.438;6.978;2023-04-15T01:28:21;99461.50;;;11.17;65.81
2339;BME280;1180;51.438;6.978;2023-04-15T01:30:47;99472.22;;;11.11;66.11
2339;BME280;1180;51.438;6.978;2023-04-15T01:33:12;99472.56;;;11.18;66.03
2339;BME280;1180;51.438;6.978;2023-04-15T01:35:38;99471.75;;;11.17;65.84
2339;BME280;1180;51.438;6.978;2023-04-15T01:38:08;99467.41;;;11.06;66.50
2339;BME280;1180;51.438;6.978;2023-04-15T01:40:34;99470.47;;;11.11;66.07
2339;BME280;1180;51.438;6.978;2023-04-15T01:43:00;99473.00;;;11.00;66.50
2339;BME280;1180;51.438;6.978;2023-04-15T01:45:26;99475.81;;;10.97;67.04
2339;BME280;1180;51.438;6.978;2023-04-15T01:47:52;99475.81;;;10.97;66.80
2339;BME280;1180;51.438;6.978;2023-04-15T01:50:17;99475.59;;;11.11;66.70
2339;BME280;1180;51.438;6.978;2023-04-15T01:52:43;99472.56;;;11.06;66.85
2339;BME280;1180;51.438;6.978;2023-04-15T01:55:11;99475.13;;;11.06;67.08
2339;BME280;1180;51.438;6.978;2023-04-15T01:57:37;99469.50;;;11.01;66.74
2339;BME280;1180;51.438;6.978;2023-04-15T02:00:04;99466.25;;;10.99;67.30
2339;BME280;1180;51.438;6.978;2023-04-15T02:02:32;99472.00;;;10.78;68.20
2339;BME280;1180;51.438;6.978;2023-04-15T02:04:58;99461.41;;;10.83;68.43
2339;BME280;1180;51.438;6.978;2023-04-15T02:07:23;99473.41;;;10.82;68.83
2339;BME280;1180;51.438;6.978;2023-04-15T02:09:49;99470.06;;;10.93;68.16
2339;BME280;1180;51.438;6.978;2023-04-15T02:12:15;99472.72;;;10.92;68.68
2339;BME280;1180;51.438;6.978;2023-04-15T02:14:41;99466.34;;;10.97;68.82
2339;BME280;1180;51.438;6.978;2023-04-15T02:17:07;99475.09;;;10.95;69.22
2339;BME280;1180;51.438;6.978;2023-04-15T02:19:34;99463.28;;;10.92;69.53
2339;BME280;1180;51.438;6.978;2023-04-15T02:22:00;99473.09;;;10.87;69.99
2339;BME280;1180;51.438;6.978;2023-04-15T02:24:27;99465.41;;;10.98;69.70
2339;BME280;1180;51.438;6.978;2023-04-15T02:26:53;99472.94;;;10.77;70.51
2339;BME280;1180;51.438;6.978;2023-04-15T02:29:18;99473.53;;;10.81;70.73
2339;BME280;1180;51.438;6.978;2023-04-15T02:31:44;99476.69;;;10.84;70.96
2339;BME280;1180;51.438;6.978;2023-04-15T02:34:10;99477.50;;;10.85;70.92
2339;BME280;1180;51.438;6.978;2023-04-15T02:36:35;99480.09;;;10.85;71.11
2339;BME280;1180;51.438;6.978;2023-04-15T02:39:01;99470.28;;;10.90;70.58
2339;BME280;1180;51.438;6.978;2023-04-15T02:41:27;99489.25;;;10.76;71.09
2339;BME280;1180;51.438;6.978;2023-04-15T02:43:54;99498.56;;;10.66;71.98
2339;BME280;1180;51.438;6.978;2023-04-15T02:46:20;99497.72;;;10.65;71.86
2339;BME280;1180;51.438;6.978;2023-04-15T02:48:47;99499.75;;;10.73;71.76
2339;BME280;1180;51.438;6.978;2023-04-15T02:51:17;99503.13;;;10.74;71.89
2339;BME280;1180;51.438;6.978;2023-04-15T02:53:47;99503.00;;;10.64;72.46
2339;BME280;1180;51.438;6.978;2023-04-15T02:56:13;99503.94;;;10.74;72.04
2339;BME280;1180;51.438;6.978;2023-04-15T02:58:43;99498.34;;;10.69;71.99
2339;BME280;1180;51.438;6.978;2023-04-15T03:01:09;99500.03;;;10.57;72.79
2339;BME280;1180;51.438;6.978;2023-04-15T03:03:37;99501.44;;;10.61;72.35
2339;BME280;1180;51.438;6.978;2023-04-15T03:06:03;99514.94;;;10.52;72.98
2339;BME280;1180;51.438;6.978;2023-04-15T03:08:28;99512.00;;;10.32;73.71
2339;BME280;1180;51.438;6.978;2023-04-15T03:10:54;99513.13;;;10.28;74.37
2339;BME280;1180;51.438;6.978;2023-04-15T03:13:19;99506.06;;;10.32;74.75
2339;BME280;1180;51.438;6.978;2023-04-15T03:15:45;99506.41;;;10.51;74.04
2339;BME280;1180;51.438;6.978;2023-04-15T03:18:11;99506.25;;;10.66;73.13
2339;BME280;1180;51.438;6.978;2023-04-15T03:20:36;99510.06;;;10.60;73.57
2339;BME280;1180;51.438;6.978;2023-04-15T03:23:02;99516.88;;;10.48;73.91
2339;BME280;1180;51.438;6.978;2023-04-15T03:25:27;99519.59;;;10.34;74.41
2339;BME280;1180;51.438;6.978;2023-04-15T03:27:52;99515.56;;;10.43;74.31
2339;BME280;1180;51.438;6.978;2023-04-15T03:30:18;99512.91;;;10.31;74.94
2339;BME280;1180;51.438;6.978;2023-04-15T03:32:44;99514.84;;;10.40;74.80
2339;BME280;1180;51.438;6.978;2023-04-15T03:35:10;99520.50;;;10.33;74.84
2339;BME280;1180;51.438;6.978;2023-04-15T03:37:36;99519.09;;;10.29;75.15
2339;BME280;1180;51.438;6.978;2023-04-15T03:40:01;99512.72;;;10.21;75.45
2339;BME280;1180;51.438;6.978;2023-04-15T03:42:26;99529.44;;;10.27;75.61
2339;BME280;1180;51.438;6.978;2023-04-15T03:44:52;99526.69;;;10.17;75.66
2339;BME280;1180;51.438;6.978;2023-04-15T03:47:17;99527.19;;;10.22;75.74
2339;BME280;1180;51.438;6.978;2023-04-15T03:49:42;99530.19;;;10.16;75.97
2339;BME280;1180;51.438;6.978;2023-04-15T03:52:08;99544.66;;;10.17;76.40
2339;BME280;1180;51.438;6.978;2023-04-15T03:54:33;99547.84;;;10.08;76.32
2339;BME280;1180;51.438;6.978;2023-04-15T03:56:59;99545.09;;;9.98;77.05
2339;BME280;1180;51.438;6.978;2023-04-15T03:59:24;99547.84;;;10.08;76.91
2339;BME280;1180;51.438;6.978;2023-04-15T04:01:49;99544.66;;;10.17;76.18
2339;BME280;1180;51.438;6.978;2023-04-15T04:04:15;99545.31;;;10.32;75.68
2339;BME280;1180;51.438;6.978;2023-04-15T04:06:40;99543.41;;;10.23;75.72
2339;BME280;1180;51.438;6.978;2023-04-15T04:09:06;99554.16;;;10.28;76.02
2339;BME280;1180;51.438;6.978;2023-04-15T04:11:31;99548.00;;;10.31;75.54
2339;BME280;1180;51.438;6.978;2023-04-15T04:13:57;99551.97;;;9.97;76.75
2339;BME280;1180;51.438;6.978;2023-04-15T04:16:22;99543.75;;;9.92;77.50
2339;BME280;1180;51.438;6.978;2023-04-15T04:18:48;99554.81;;;10.06;77.23
2339;BME280;1180;51.438;6.978;2023-04-15T04:21:13;99552.56;;;9.88;77.82
2339;BME280;1180;51.438;6.978;2023-04-15T04:23:39;99555.84;;;9.90;77.87
2339;BME280;1180;51.438;6.978;2023-04-15T04:26:04;99555.13;;;9.88;77.67
2339;BME280;1180;51.438;6.978;2023-04-15T04:28:30;99547.56;;;9.74;78.56
2339;BME280;1180;51.438;6.978;2023-04-15T04:30:55;99560.09;;;9.78;78.39
2339;BME280;1180;51.438;6.978;2023-04-15T04:33:21;99558.84;;;9.84;78.22
2339;BME280;1180;51.438;6.978;2023-04-15T04:35:46;99554.75;;;9.94;78.14
2339;BME280;1180;51.438;6.978;2023-04-15T04:38:12;99563.53;;;9.90;77.88
2339;BME280;1180;51.438;6.978;2023-04-15T04:40:37;99568.28;;;9.83;78.28
2339;BME280;1180;51.438;6.978;2023-04-15T04:43:03;99572.91;;;9.78;78.48
2339;BME280;1180;51.438;6.978;2023-04-15T04:45:28;99574.72;;;9.76;78.79
2339;BME280;1180;51.438;6.978;2023-04-15T04:47:54;99578.53;;;9.83;78.61
2339;BME280;1180;51.438;6.978;2023-04-15T04:50:19;99568.56;;;9.92;78.18
2339;BME280;1180;51.438;6.978;2023-04-15T04:52:45;99584.88;;;9.65;79.28
2339;BME280;1180;51.438;6.978;2023-04-15T04:55:11;99593.66;;;9.48;80.85
2339;BME280;1180;51.438;6.978;2023-04-15T04:57:37;99585.78;;;9.51;80.47
2339;BME280;1180;51.438;6.978;2023-04-15T05:00:05;99581.78;;;9.60;80.42
2339;BME280;1180;51.438;6.978;2023-04-15T05:02:31;99591.22;;;9.72;79.61
2339;BME280;1180;51.438;6.978;2023-04-15T05:04:57;99587.53;;;9.63;79.53
2339;BME280;1180;51.438;6.978;2023-04-15T05:07:22;99588.47;;;9.62;80.10
2339;BME280;1180;51.438;6.978;2023-04-15T05:09:47;99597.06;;;9.61;80.29
2339;BME280;1180;51.438;6.978;2023-04-15T05:12:13;99598.38;;;9.54;80.69
2339;BME280;1180;51.438;6.978;2023-04-15T05:14:42;99598.69;;;9.75;80.30
2339;BME280;1180;51.438;6.978;2023-04-15T05:17:07;99605.38;;;9.78;80.20
2339;BME280;1180;51.438;6.978;2023-04-15T05:19:33;99606.06;;;9.67;80.19
2339;BME280;1180;51.438;6.978;2023-04-15T05:21:59;99609.31;;;9.30;82.08
2339;BME280;1180;51.438;6.978;2023-04-15T05:24:24;99611.88;;;9.43;82.67
2339;BME280;1180;51.438;6.978;2023-04-15T05:26:50;99613.03;;;9.52;81.72
2339;BME280;1180;51.438;6.978;2023-04-15T05:29:15;99617.84;;;9.44;81.78
2339;BME280;1180;51.438;6.978;2023-04-15T05:31:41;99618.63;;;9.44;82.49
2339;BME280;1180;51.438;6.978;2023-04-15T05:34:07;99619.94;;;9.64;81.83
2339;BME280;1180;51.438;6.978;2023-04-15T05:36:32;99625.63;;;9.55;81.80
2339;BME280;1180;51.438;6.978;2023-04-15T05:38:57;99624.94;;;9.66;81.85
2339;BME280;1180;51.438;6.978;2023-04-15T05:41:23;99625.97;;;9.63;81.85
2339;BME280;1180;51.438;6.978;2023-04-15T05:43:48;99628.72;;;9.47;82.53
2339;BME280;1180;51.438;6.978;2023-04-15T05:46:14;99633.22;;;9.57;82.27
2339;BME280;1180;51.438;6.978;2023-04-15T05:48:39;99635.66;;;9.58;82.19
2339;BME280;1180;51.438;6.978;2023-04-15T05:51:05;99646.41;;;9.37;82.90
2339;BME280;1180;51.438;6.978;2023-04-15T05:53:30;99644.16;;;9.46;83.58
2339;BME280;1180;51.438;6.978;2023-04-15T05:55:56;99648.47;;;9.58;83.24
2339;BME280;1180;51.438;6.978;2023-04-15T05:58:21;99649.59;;;9.54;83.20
2339;BME280;1180;51.438;6.978;2023-04-15T06:00:46;99654.47;;;9.72;83.10
2339;BME280;1180;51.438;6.978;2023-04-15T06:03:12;99657.72;;;9.61;83.85
2339;BME280;1180;51.438;6.978;2023-04-15T06:05:37;99664.38;;;9.50;83.82
2339;BME280;1180;51.438;6.978;2023-04-15T06:08:02;99657.72;;;9.61;84.55
2339;BME280;1180;51.438;6.978;2023-04-15T06:10:28;99666.16;;;9.76;83.18
2339;BME280;1180;51.438;6.978;2023-04-15T06:12:54;99669.88;;;9.85;82.37
2339;BME280;1180;51.438;6.978;2023-04-15T06:15:20;99676.31;;;9.90;82.60
2339;BME280;1180;51.438;6.978;2023-04-15T06:17:45;99673.97;;;10.00;82.86
2339;BME280;1180;51.438;6.978;2023-04-15T06:20:11;99682.28;;;10.04;82.36
2339;BME280;1180;51.438;6.978;2023-04-15T06:22:37;99676.44;;;10.15;82.70
2339;BME280;1180;51.438;6.978;2023-04-15T06:25:06;99680.81;;;10.38;81.96
2339;BME280;1180;51.438;6.978;2023-04-15T06:27:32;99687.41;;;10.55;81.26
2339;BME280;1180;51.438;6.978;2023-04-15T06:29:57;99684.13;;;10.53;81.16
2339;BME280;1180;51.438;6.978;2023-04-15T06:32:23;99690.19;;;10.52;81.37
2339;BME280;1180;51.438;6.978;2023-04-15T06:34:48;99690.78;;;10.69;81.82
2339;BME280;1180;51.438;6.978;2023-04-15T06:37:13;99685.00;;;10.78;80.92
2339;BME280;1180;51.438;6.978;2023-04-15T06:39:41;99702.66;;;10.83;80.81
2339;BME280;1180;51.438;6.978;2023-04-15T06:42:07;99697.50;;;10.96;80.16
2339;BME280;1180;51.438;6.978;2023-04-15T06:44:33;99698.81;;;10.51;80.96
2339;BME280;1180;51.438;6.978;2023-04-15T06:46:58;99709.44;;;10.19;82.53
2339;BME280;1180;51.438;6.978;2023-04-15T06:49:24;99703.09;;;10.12;83.88
2339;BME280;1180;51.438;6.978;2023-04-15T06:51:49;99706.63;;;9.71;85.32
2339;BME280;1180;51.438;6.978;2023-04-15T06:54:15;99713.81;;;9.91;85.91
2339;BME280;1180;51.438;6.978;2023-04-15T06:56:41;99718.88;;;10.06;85.14
2339;BME280;1180;51.438;6.978;2023-04-15T06:59:07;99713.66;;;10.33;84.36
2339;BME280;1180;51.438;6.978;2023-04-15T07:01:32;99716.97;;;10.48;83.31
2339;BME280;1180;51.438;6.978;2023-04-15T07:03:58;99722.19;;;10.34;83.20
2339;BME280;1180;51.438;6.978;2023-04-15T07:06:23;99720.25;;;10.50;82.17
2339;BME280;1180;51.438;6.978;2023-04-15T07:08:48;99725.19;;;10.53;82.23
2339;BME280;1180;51.438;6.978;2023-04-15T07:11:14;99724.97;;;10.44;83.28
2339;BME280;1180;51.438;6.978;2023-04-15T07:13:39;99724.38;;;10.66;82.47
2339;BME280;1180;51.438;6.978;2023-04-15T07:16:05;99729.50;;;10.53;82.64
2339;BME280;1180;51.438;6.978;2023-04-15T07:18:30;99730.41;;;10.65;82.44
2339;BME280;1180;51.438;6.978;2023-04-15T07:20:56;99733.13;;;10.88;81.43
2339;BME280;1180;51.438;6.978;2023-04-15T07:23:21;99737.00;;;11.06;81.00
2339;BME280;1180;51.438;6.978;2023-04-15T07:25:47;99738.28;;;11.25;80.14
2339;BME280;1180;51.438;6.978;2023-04-15T07:28:13;99733.72;;;11.41;79.98
2339;BME280;1180;51.438;6.978;2023-04-15T07:30:38;99739.16;;;11.37;79.10
2339;BME280;1180;51.438;6.978;2023-04-15T07:33:04;99744.06;;;11.16;79.63
2339;BME280;1180;51.438;6.978;2023-04-15T07:35:29;99751.69;;;11.17;80.58
2339;BME280;1180;51.438;6.978;2023-04-15T07:37:55;99750.31;;;11.49;80.12
2339;BME280;1180;51.438;6.978;2023-04-15T07:40:21;99758.13;;;11.72;83.92
2339;BME280;1180;51.438;6.978;2023-04-15T07:42:47;99756.22;;;11.87;82.58
2339;BME280;1180;51.438;6.978;2023-04-15T07:45:13;99761.72;;;11.93;78.85
2339;BME280;1180;51.438;6.978;2023-04-15T07:47:41;99762.19;;;11.63;78.26
2339;BME280;1180;51.438;6.978;2023-04-15T07:50:08;99766.34;;;11.52;78.24
2339;BME280;1180;51.438;6.978;2023-04-15T07:52:34;99757.81;;;11.52;78.88
2339;BME280;1180;51.438;6.978;2023-04-15T07:55:05;99754.72;;;11.22;78.85
2339;BME280;1180;51.438;6.978;2023-04-15T07:57:32;99765.00;;;11.22;79.91
2339;BME280;1180;51.438;6.978;2023-04-15T07:59:59;99765.81;;;11.23;79.98
2339;BME280;1180;51.438;6.978;2023-04-15T08:02:25;99759.19;;;11.45;78.64
2339;BME280;1180;51.438;6.978;2023-04-15T08:04:51;99768.75;;;11.05;79.82
2339;BME280;1180;51.438;6.978;2023-04-15T08:07:17;99764.53;;;11.41;79.95
2339;BME280;1180;51.438;6.978;2023-04-15T08:09:43;99763.44;;;11.57;78.24
2339;BME280;1180;51.438;6.978;2023-04-15T08:12:08;99769.00;;;11.51;78.72
2339;BME280;1180;51.438;6.978;2023-04-15T08:14:36;99766.44;;;11.51;78.01
2339;BME280;1180;51.438;6.978;2023-04-15T08:17:02;99765.56;;;11.39;77.71
2339;BME280;1180;51.438;6.978;2023-04-15T08:19:28;99765.00;;;11.22;76.81
2339;BME280;1180;51.438;6.978;2023-04-15T08:21:54;99771.78;;;10.73;78.51
2339;BME280;1180;51.438;6.978;2023-04-15T08:24:20;99776.81;;;10.62;78.81
2339;BME280;1180;51.438;6.978;2023-04-15T08:26:45;99771.63;;;10.88;78.67
2339;BME280;1180;51.438;6.978;2023-04-15T08:29:11;99779.75;;;10.81;78.64
2339;BME280;1180;51.438;6.978;2023-04-15T08:31:37;99772.13;;;11.06;77.04
2339;BME280;1180;51.438;6.978;2023-04-15T08:34:02;99777.63;;;11.25;76.40
2339;BME280;1180;51.438;6.978;2023-04-15T08:36:28;99778.34;;;11.27;75.72
2339;BME280;1180;51.438;6.978;2023-04-15T08:38:53;99783.78;;;11.23;76.11
2339;BME280;1180;51.438;6.978;2023-04-15T08:41:24;99786.59;;;11.81;74.55
2339;BME280;1180;51.438;6.978;2023-04-15T08:43:58;99778.72;;;11.47;72.52
2339;BME280;1180;51.438;6.978;2023-04-15T08:46:26;99788.41;;;11.31;74.52
2339;BME280;1180;51.438;6.978;2023-04-15T08:48:55;99784.06;;;11.44;73.47
2339;BME280;1180;51.438;6.978;2023-04-15T08:51:21;99789.28;;;11.18;74.16
2339;BME280;1180;51.438;6.978;2023-04-15T08:53:48;99787.19;;;11.23;74.38
2339;BME280;1180;51.438;6.978;2023-04-15T08:56:14;99791.72;;;11.20;73.65
2339;BME280;1180;51.438;6.978;2023-04-15T08:58:43;99788.69;;;11.39;73.75
2339;BME280;1180;51.438;6.978;2023-04-15T09:01:10;99788.53;;;11.53;73.78
2339;BME280;1180;51.438;6.978;2023-04-15T09:03:37;99800.50;;;11.66;72.97
2339;BME280;1180;51.438;6.978;2023-04-15T09:06:03;99796.47;;;11.50;72.93
2339;BME280;1180;51.438;6.978;2023-04-15T09:08:30;99807.56;;;11.13;73.59
2339;BME280;1180;51.438;6.978;2023-04-15T09:10:55;99812.28;;;11.07;74.40
2339;BME280;1180;51.438;6.978;2023-04-15T09:13:21;99809.25;;;11.26;74.42
2339;BME280;1180;51.438;6.978;2023-04-15T09:15:46;99806.28;;;11.32;73.51
2339;BME280;1180;51.438;6.978;2023-04-15T09:18:13;99807.13;;;11.20;74.32
2339;BME280;1180;51.438;6.978;2023-04-15T09:20:52;99815.69;;;11.45;74.58
2339;BME280;1180;51.438;6.978;2023-04-15T09:23:17;99825.06;;;11.70;73.86
2339;BME280;1180;51.438;6.978;2023-04-15T09:25:42;99824.44;;;11.42;74.78
2339;BME280;1180;51.438;6.978;2023-04-15T09:28:08;99831.34;;;11.66;74.42
2339;BME280;1180;51.438;6.978;2023-04-15T09:30:36;99832.28;;;11.65;74.51
2339;BME280;1180;51.438;6.978;2023-04-15T09:33:03;99831.47;;;11.64;74.01
2339;BME280;1180;51.438;6.978;2023-04-15T09:35:33;99833.13;;;11.65;75.10
2339;BME280;1180;51.438;6.978;2023-04-15T09:38:06;99837.19;;;11.92;74.55
2339;BME280;1180;51.438;6.978;2023-04-15T09:40:36;99840.34;;;12.09;73.74
2339;BME280;1180;51.438;6.978;2023-04-15T09:43:03;99838.88;;;12.18;73.42
2339;BME280;1180;51.438;6.978;2023-04-15T09:45:30;99846.97;;;11.76;74.80
2339;BME280;1180;51.438;6.978;2023-04-15T09:47:57;99840.38;;;11.72;75.92
2339;BME280;1180;51.438;6.978;2023-04-15T09:50:26;99844.56;;;11.85;75.47
2339;BME280;1180;51.438;6.978;2023-04-15T09:52:52;99853.38;;;11.94;74.54
2339;BME280;1180;51.438;6.978;2023-04-15T09:55:17;99857.53;;;11.47;76.54
2339;BME280;1180;51.438;6.978;2023-04-15T09:57:45;99857.97;;;11.15;78.68
2339;BME280;1180;51.438;6.978;2023-04-15T10:00:14;99854.25;;;11.32;78.33
2339;BME280;1180;51.438;6.978;2023-04-15T10:02:41;99855.81;;;11.34;78.13
2339;BME280;1180;51.438;6.978;2023-04-15T10:05:09;99862.78;;;11.45;78.96
2339;BME280;1180;51.438;6.978;2023-04-15T10:07:37;99865.66;;;11.78;78.37
2339;BME280;1180;51.438;6.978;2023-04-15T10:10:03;99864.88;;;12.02;76.76
2339;BME280;1180;51.438;6.978;2023-04-15T10:12:30;99864.16;;;11.99;76.92
2339;BME280;1180;51.438;6.978;2023-04-15T10:15:02;99872.50;;;11.90;77.79
2339;BME280;1180;51.438;6.978;2023-04-15T10:17:33;99869.91;;;12.03;77.51
2339;BME280;1180;51.438;6.978;2023-04-15T10:20:00;99868.91;;;12.17;76.79
2339;BME280;1180;51.438;6.978;2023-04-15T10:22:28;99881.28;;;12.12;75.72
2339;BME280;1180;51.438;6.978;2023-04-15T10:24:58;99876.34;;;11.84;76.84
2339;BME280;1180;51.438;6.978;2023-04-15T10:27:26;99887.06;;;11.78;78.09
2339;BME280;1180;51.438;6.978;2023-04-15T10:29:53;99885.22;;;11.67;78.35
2339;BME280;1180;51.438;6.978;2023-04-15T10:32:19;99884.44;;;11.54;78.44
2339;BME280;1180;51.438;6.978;2023-04-15T10:34:47;99901.25;;;11.71;78.64
2339;BME280;1180;51.438;6.978;2023-04-15T10:37:20;99889.69;;;11.90;78.28
2339;BME280;1180;51.438;6.978;2023-04-15T10:39:46;99905.28;;;12.12;77.65
2339;BME280;1180;51.438;6.978;2023-04-15T10:42:15;99892.13;;;11.91;78.79
2339;BME280;1180;51.438;6.978;2023-04-15T10:44:44;99898.00;;;11.93;78.66
2339;BME280;1180;51.438;6.978;2023-04-15T10:47:17;99900.72;;;12.16;78.16
2339;BME280;1180;51.438;6.978;2023-04-15T10:52:16;99908.38;;;12.05;78.75
2339;BME280;1180;51.438;6.978;2023-04-15T10:54:42;99908.63;;;11.89;79.65
2339;BME280;1180;51.438;6.978;2023-04-15T10:57:20;99910.88;;;11.93;78.91
2339;BME280;1180;51.438;6.978;2023-04-15T11:02:41;99912.09;;;12.01;79.21
2339;BME280;1180;51.438;6.978;2023-04-15T11:05:07;99914.34;;;11.92;79.79
2339;BME280;1180;51.438;6.978;2023-04-15T11:13:02;99913.22;;;11.96;78.94
2339;BME280;1180;51.438;6.978;2023-04-15T11:15:36;99912.00;;;11.89;78.70
2339;BME280;1180;51.438;6.978;2023-04-15T11:20:40;99917.25;;;11.50;81.46
2339;BME280;1180;51.438;6.978;2023-04-15T11:23:07;99919.69;;;11.52;81.55
2339;BME280;1180;51.438;6.978;2023-04-15T11:25:34;99919.56;;;11.66;81.56
2339;BME280;1180;51.438;6.978;2023-04-15T11:28:01;99924.63;;;12.05;79.79
2339;BME280;1180;51.438;6.978;2023-04-15T11:30:29;99927.41;;;12.02;78.17
2339;BME280;1180;51.438;6.978;2023-04-15T11:32:58;99933.44;;;11.64;80.21
2339;BME280;1180;51.438;6.978;2023-04-15T11:35:24;99937.78;;;11.63;80.88
2339;BME280;1180;51.438;6.978;2023-04-15T11:37:50;99942.38;;;11.71;80.01
2339;BME280;1180;51.438;6.978;2023-04-15T11:40:21;99933.25;;;11.54;80.12
2339;BME280;1180;51.438;6.978;2023-04-15T11:43:06;99941.81;;;11.54;80.78
2339;BME280;1180;51.438;6.978;2023-04-15T11:45:33;99948.09;;;11.37;81.16
2339;BME280;1180;51.438;6.978;2023-04-15T11:48:09;99951.38;;;11.52;80.93
2339;BME280;1180;51.438;6.978;2023-04-15T11:50:36;99955.38;;;11.44;81.51
2339;BME280;1180;51.438;6.978;2023-04-15T11:53:04;99957.94;;;11.31;81.80
2339;BME280;1180;51.438;6.978;2023-04-15T11:55:32;99951.38;;;11.52;81.02
2339;BME280;1180;51.438;6.978;2023-04-15T12:00:36;99961.94;;;11.22;82.52
2339;BME280;1180;51.438;6.978;2023-04-15T12:03:25;99965.13;;;11.25;82.28
2339;BME280;1180;51.438;6.978;2023-04-15T12:11:37;99974.38;;;11.41;81.60
2339;BME280;1180;51.438;6.978;2023-04-15T12:16:39;99980.94;;;11.06;82.59
2339;BME280;1180;51.438;6.978;2023-04-15T12:19:12;99991.63;;;11.00;83.15
2339;BME280;1180;51.438;6.978;2023-04-15T12:21:40;99999.75;;;11.20;82.70
2339;BME280;1180;51.438;6.978;2023-04-15T12:24:10;99988.16;;;11.40;81.49
2339;BME280;1180;51.438;6.978;2023-04-15T12:26:42;99995.34;;;11.35;81.78
2339;BME280;1180;51.438;6.978;2023-04-15T12:29:09;100001.31;;;11.48;81.17
2339;BME280;1180;51.438;6.978;2023-04-15T12:31:36;100005.63;;;11.48;81.03
2339;BME280;1180;51.438;6.978;2023-04-15T12:34:05;100006.25;;;11.64;80.83
2339;BME280;1180;51.438;6.978;2023-04-15T12:36:32;100015.41;;;11.43;81.30
2339;BME280;1180;51.438;6.978;2023-04-15T12:39:05;100023.00;;;11.44;81.38
2339;BME280;1180;51.438;6.978;2023-04-15T12:41:31;100039.13;;;11.33;82.09
2339;BME280;1180;51.438;6.978;2023-04-15T12:43:58;100033.47;;;11.41;80.84
2339;BME280;1180;51.438;6.978;2023-04-15T12:46:25;100027.09;;;11.47;80.74
2339;BME280;1180;51.438;6.978;2023-04-15T12:48:51;100037.06;;;11.38;81.30
2339;BME280;1180;51.438;6.978;2023-04-15T12:51:17;100038.41;;;11.31;82.05
2339;BME280;1180;51.438;6.978;2023-04-15T12:53:43;100042.41;;;11.74;80.75
2339;BME280;1180;51.438;6.978;2023-04-15T12:56:09;100037.25;;;11.87;79.58
2339;BME280;1180;51.438;6.978;2023-04-15T12:58:35;100033.06;;;11.86;79.46
2339;BME280;1180;51.438;6.978;2023-04-15T13:01:00;100046.84;;;11.59;80.12
2339;BME280;1180;51.438;6.978;2023-04-15T13:03:26;100046.25;;;11.68;80.41
2339;BME280;1180;51.438;6.978;2023-04-15T13:05:52;100045.53;;;11.66;79.97
2339;BME280;1180;51.438;6.978;2023-04-15T13:08:18;100053.81;;;11.57;80.57
2339;BME280;1180;51.438;6.978;2023-04-15T13:10:43;100053.75;;;11.59;80.96
2339;BME280;1180;51.438;6.978;2023-04-15T13:13:10;100052.91;;;11.45;81.51
2339;BME280;1180;51.438;6.978;2023-04-15T13:15:36;100058.97;;;11.44;81.21
2339;BME280;1180;51.438;6.978;2023-04-15T13:18:05;100061.94;;;11.51;81.06
2339;BME280;1180;51.438;6.978;2023-04-15T13:20:30;100069.38;;;11.68;80.59
2339;BME280;1180;51.438;6.978;2023-04-15T13:22:56;100068.66;;;11.79;80.18
2339;BME280;1180;51.438;6.978;2023-04-15T13:25:22;100074.91;;;11.88;79.78
2339;BME280;1180;51.438;6.978;2023-04-15T13:27:48;100074.06;;;11.49;81.68
2339;BME280;1180;51.438;6.978;2023-04-15T13:30:14;100079.78;;;11.13;83.82
2339;BME280;1180;51.438;6.978;2023-04-15T13:32:40;100076.66;;;11.49;82.03
2339;BME280;1180;51.438;6.978;2023-04-15T13:35:06;100086.66;;;11.66;80.91
2339;BME280;1180;51.438;6.978;2023-04-15T13:37:32;100084.06;;;11.66;80.99
2339;BME280;1180;51.438;6.978;2023-04-15T13:39:58;100091.59;;;11.69;80.60
2339;BME280;1180;51.438;6.978;2023-04-15T13:42:24;100095.88;;;11.69;80.78